Holladay, Tennessee
Current Conditions -  °F | °C
As of 12:55 PM on Wednesday 26 Nov 2014 (Local Time) from KPVE Reporting Station
Broken Clouds Broken Clouds  
Wind Chill: 43°   Ceiling: 9000
Heat Index: 46°   Visibility: 10mi
Dew Point: 23°   Wind: 7mph
Humidity: 40%   Direction: 160°SSE
Pressure: 30.03"   Gusts: NA
Location:  35.87°N, 88.15°W
Report Text: KPVE 261855Z AUTO 16006KT 10SM BKN090 08/M05 A3003 RMK
Loading
Personal Weather Stations






























Interactive Weather Map New forecast layout! Learn more

10-Day Weather Forecast

Advertisements
Track Severe Weather on mobile